Logo AVAMET
Benvolgut visitant, si us plau, ingressa Recuperar contrasenya
AVAMET paisatges

Borriana Platja del Grau

Dades diàries. Acumulats / Últims 30 dies disponibles

Data Temperatura (°C) Humitat rel. (%) Pressió rel. (hPa) Vent (km/h) Precipitació
Mínima Mitjana Màxima Amplitud
tèrmica
Mínima Mitjana Màxima Mínima Mitjana Màxima Predom. Mitjana Ràfega
màxima
Total
(mm)
Índex-n
Mínima Mitjana Màxima Mínima Mitjana Màxima n
0 a 1
P0 max
mm 5'
Dades mensuals acumulades fins l'últim dia disponible
02/2020 6,1 9,7 13,6 13,3 13,4 16,8 24,4 18,3 28 79 95 1.017 1.029 1.038   10,2 57,9 0,0
Dades anuals acumulades fins l'últim dia disponible
2020 3,6 8,4 13,6 12,0 10,9 15,5 24,4 20,8 28 79 97 1.017 1.028 1.038   12,0 96,5 69,0
Últims 30 dies disponibles
28-02-2020 12,3     16,0     19,9 7,6 41 64 82 1.021 1.024 1.026 SSO 9,7 37,0 0,0
27-02-2020 8,4     16,0     24,4 16,0 28 56 74 1.018 1.021 1.024 SO 13,6 42,6 0,0
26-02-2020 8,8     13,7     16,5 7,7 55 70 79 1.018 1.020 1.024 SSO 11,9 35,4 0,0
25-02-2020 9,3     14,2     18,5 9,2 45 71 88 1.017 1.020 1.023 SSO 8,5 38,9 0,0
24-02-2020 8,3     12,5     15,6 7,3 61 78 90 1.023 1.029 1.034 SO 9,8 25,9 0,0
23-02-2020 7,4     12,0     14,8 7,4 71 82 93 1.034 1.036 1.038 SSO 10,3 25,9 0,0
22-02-2020 8,2     11,7     15,6 7,4 61 82 94 1.033 1.035 1.038 SSO 9,9 24,1 0,0
21-02-2020 7,3     11,3     14,4 7,1 75 85 92 1.030 1.033 1.035 SSO 12,0 24,1 0,0
20-02-2020 7,2     11,4     14,0 6,8 68 81 92 1.028 1.029 1.032 SO 9,9 31,5 0,0
19-02-2020 8,2     12,4     15,5 7,3 63 78 90 1.032 1.034 1.036 SSO 11,3 32,2 0,0
18-02-2020 12,3     13,5     15,3 3,0 63 79 93 1.033 1.035 1.037 SSO 8,0 43,4 0,0
17-02-2020 10,1     11,7     13,8 3,7 87 92 94 1.027 1.029 1.033 SO 8,7 22,6 0,0
16-02-2020 9,2     11,7     14,1 4,9 83 90 94 1.028 1.030 1.031 SSO 10,1 22,6 0,0
15-02-2020 8,7     11,9     14,9 6,2 80 87 94 1.028 1.029 1.031 SSO 9,6 22,5 0,0
14-02-2020 11,3     14,3     19,2 7,9 57 78 90 1.026 1.028 1.029 SO 12,9 38,9 0,0
13-02-2020 10,8     13,1     15,1 4,3 84 91 95 1.023 1.025 1.027 S 6,8 31,5 0,0
12-02-2020 12,5     14,1     15,6 3,1 75 85 93 1.026 1.027 1.029 S 10,6 33,8 0,0
11-02-2020 11,4     14,9     18,5 7,1 65 77 90 1.025 1.027 1.029 SSO 7,7 27,8 0,0
10-02-2020 9,3     14,0     18,5 9,2 68 80 92 1.028 1.030 1.033 SSO 7,2 27,8 0,0
09-02-2020 8,4     11,4     15,0 6,6 74 87 94 1.030 1.032 1.034 SO 11,7 25,9 0,0
08-02-2020 7,3     10,9     13,4 6,1 79 85 91 1.027 1.028 1.031 SSO 9,0 22,5 0,0
07-02-2020 9,3     11,4     13,6 4,3 73 82 89 1.027 1.028 1.030 SO 5,9 31,5 0,0
06-02-2020 6,1     10,2     13,6 7,5 69 81 89 1.028 1.030 1.032 SO 13,1 31,5 0,0
05-02-2020 8,0     12,0     16,6 8,6 57 72 89 1.030 1.032 1.034 S 15,3 57,9 0,0
04-02-2020 13,4     17,3     22,6 9,2 47 61 79 1.025 1.027 1.030 SO 11,7 40,7 0,0
03-02-2020 12,9     15,8     20,2 7,3 62 76 86 1.029 1.030 1.032 SO 11,1 31,5 0,0
02-02-2020 13,6     16,1     19,9 6,3 69 76 86 1.028 1.030 1.031 SO 9,8 32,2 0,0
01-02-2020 12,2     16,0     21,7 9,5 61 73 81 1.023 1.025 1.029 SO 10,0 32,2 0,0
31-01-2020 12,2     14,8     18,1 5,9 70 77 84 1.024 1.024 1.026 SO 8,0 24,1 0,0
30-01-2020 11,4     14,5     17,2 5,8 64 74 81 1.022 1.024 1.025 SO 8,4 27,8 0,0
Últims 13 mesos disponibles
01/2020 3,6 7,2 12,7 10,7 10,9 14,3 18,9 15,3 67 80 94 1.020 1.028 1.035 SO 13,8 96,5 69,0
12/2019 5,4 10,1 17,2 13,3 12,7 16,9 25,3 19,9 52 75 94 1.004 1.022 1.036 SO 13,4 79,6 68,0
11/2019 6,8 12,0 19,2 15,6 13,9 19,3 27,4 20,6 45 61 82 1.000 1.013 1.020 SO 13,3 80,4 2,2
10/2019 10,3 15,7 20,0 19,3 15,3 22,7 27,4 17,1 59 76 88 1.009 1.019 1.024 ESE 13,1 68,5 14,8
09/2019 14,5 19,6 22,4 22,7 24,0 25,7 30,8 16,3 58 79 88 1.012 1.020 1.028 ESE 14,7 93,3 61,0
08/2019 17,2 21,5 24,2 24,8 25,5 27,4 30,1 12,9 62 80 89 1.013 1.018 1.023 S 11,3 93,3 16,8
07/2019 20,4 21,8 23,4 25,1 26,1 27,4 29,4 9,0 61 77 87 1.008 1.017 1.024 S 12,4 64,8 15,4
06/2019 11,5 17,9 22,3 21,0 19,0 23,4 28,5 17,0 62 76 88 1.010 1.019 1.025 S 12,6 69,2 0,0
05/2019 8,8 14,2 17,3 17,2 15,7 20,0 27,8 19,0 64 78 86 1.012 1.019 1.027 S 13,0 51,8 9,8
04/2019 8,5 11,4 15,3 14,5 14,7 17,6 22,8 14,3 51 73 95 1.002 1.016 1.028 SSO 17,1 77,7 21,8
03/2019 6,8 9,7 13,3 13,4 13,1 16,9 24,3 17,5 47 70 96 1.013 1.025 1.033 SSO 12,9 55,5 7,4
02/2019 4,1 7,5 11,7 11,3 8,7 14,7 19,6 15,5 31 72 85 996 1.027 1.037 SSO 12,9 111,0 0,0
01/2019 3,7 6,4 10,8 10,8 11,2 15,2 22,2 18,5 39 63 79 1.003 1.021 1.033 OSO 14,3 99,9 2,0
Tots els anys disponibles
2019 3,7 14,0 24,2 17,4 8,7 20,6 30,8 27,1 31 73 96 996 1.020 1.037 SSO 13,5 111,0 219,2
2018 1,3 14,3 27,1 17,6 7,7 20,7 32,4 31,1 33 74 96 995 1.018 1.038 SO 13,1 88,8 454,6
Temperatura (°C)
Humitat relativa (%)
Velocitat del vent i ràfega màxima (km/h)
Direcció del vent (°)
Pressió (hPa)
Precipitació (mm)
Nota sobre les dades: s'avisa a l'usuari de la provisionalitat i no oficialitat d'aquestes dades
Logo AVAMET blanc
Web allotjada a Sollutia
Llicència de Creative CommonsLa web d'AVAMET i els seus continguts estan subjectes a una llicència de
Reconeixement - No Comercial - Compartir igual
Últimes estacions:  Forcall (Ajuntament Soci), Sant Joanet (Soci), Marines (Soci), Vilallonga - Serpis (Soci), Sorita (AVAMET), Gorga (Soci) - - -